Kingston, Utah
Current Conditions -  °F | °C
As of 7:53 PM on Tuesday 25 Nov 2014 (Local Time) from KBCE Reporting Station
Clear Clear  
Wind Chill: 26°   Ceiling: Unl
Heat Index: 34°   Visibility: 10mi
Dew Point: 19°   Wind: 10mph
Humidity: 54%   Direction: 290°WNW
Pressure: 30.4"   Gusts: NA
Location:  38.21°N, 112.19°W
Report Text: KBCE 260253Z AUTO 29009KT 10SM CLR 01/M07 A3040 RMK AO2 SLP292 T00111072 53006
Loading
Personal Weather Stations






























Interactive Weather Map New forecast layout! Learn more

10-Day Weather Forecast

Advertisements
Track Severe Weather on mobile